Somerset, Maryland
Current Conditions -  °F | °C
As of 11:30 PM on Wednesday 26 Nov 2014 (Local Time) from KCGS Reporting Station
Overcast Overcast  
Wind Chill: 32°   Ceiling: 11000
Heat Index: 36°   Visibility: 10mi
Dew Point: 34°   Wind: 5mph
Humidity: 93%   Direction: 270°W
Pressure: 30.01"   Gusts: NA
Location:  38.9825°N, 77.0796°W
Report Text: KCGS 270430Z AUTO 27004KT 10SM SCT090 OVC110 02/01 A3001 RMK AO1
Loading
Personal Weather Stations






























Interactive Weather Map New forecast layout! Learn more

10-Day Weather Forecast

Advertisements
Track Severe Weather on mobile